sensor_id;sensor_type;location;lat;lon;timestamp;pressure;altitude;pressure_sealevel;temperature;humidity
15050;BME280;7622;42.724;23.250;2022-12-16T00:02:21;94498.44;;;4.04;100.00
15050;BME280;7622;42.724;23.250;2022-12-16T00:04:49;94510.28;;;4.06;100.00
15050;BME280;7622;42.724;23.250;2022-12-16T00:07:16;94513.81;;;4.16;100.00
15050;BME280;7622;42.724;23.250;2022-12-16T00:09:42;94498.63;;;4.13;100.00
15050;BME280;7622;42.724;23.250;2022-12-16T00:12:09;94498.19;;;4.19;100.00
15050;BME280;7622;42.724;23.250;2022-12-16T00:14:36;94492.28;;;4.06;100.00
15050;BME280;7622;42.724;23.250;2022-12-16T00:17:03;94498.06;;;3.97;100.00
15050;BME280;7622;42.724;23.250;2022-12-16T00:19:29;94466.25;;;3.87;100.00
15050;BME280;7622;42.724;23.250;2022-12-16T00:21:58;94487.44;;;4.02;100.00
15050;BME280;7622;42.724;23.250;2022-12-16T00:24:25;94491.03;;;4.12;100.00
15050;BME280;7622;42.724;23.250;2022-12-16T00:26:51;94488.56;;;4.10;100.00
15050;BME280;7622;42.724;23.250;2022-12-16T00:29:18;94493.09;;;4.07;100.00
15050;BME280;7622;42.724;23.250;2022-12-16T00:31:45;94498.41;;;4.16;100.00
15050;BME280;7622;42.724;23.250;2022-12-16T00:34:13;94502.84;;;4.14;100.00
15050;BME280;7622;42.724;23.250;2022-12-16T00:36:40;94429.09;;;3.67;100.00
15050;BME280;7622;42.724;23.250;2022-12-16T00:39:10;94490.53;;;4.30;100.00
15050;BME280;7622;42.724;23.250;2022-12-16T00:41:37;94503.66;;;4.15;100.00
15050;BME280;7622;42.724;23.250;2022-12-16T00:44:05;94499.75;;;4.09;100.00
15050;BME280;7622;42.724;23.250;2022-12-16T00:46:35;94495.97;;;4.02;100.00
15050;BME280;7622;42.724;23.250;2022-12-16T00:49:03;94497.09;;;3.74;100.00
15050;BME280;7622;42.724;23.250;2022-12-16T00:51:30;94479.41;;;3.82;100.00
15050;BME280;7622;42.724;23.250;2022-12-16T00:53:57;94497.56;;;3.92;100.00
15050;BME280;7622;42.724;23.250;2022-12-16T00:56:25;94499.34;;;3.79;100.00
15050;BME280;7622;42.724;23.250;2022-12-16T00:58:52;94494.84;;;3.70;100.00
15050;BME280;7622;42.724;23.250;2022-12-16T01:01:19;94499.59;;;3.63;100.00
15050;BME280;7622;42.724;23.250;2022-12-16T01:03:46;94502.25;;;3.62;100.00
15050;BME280;7622;42.724;23.250;2022-12-16T01:06:14;94492.38;;;3.68;100.00
15050;BME280;7622;42.724;23.250;2022-12-16T01:08:42;94437.50;;;3.45;100.00
15050;BME280;7622;42.724;23.250;2022-12-16T01:11:13;94489.31;;;3.63;100.00
15050;BME280;7622;42.724;23.250;2022-12-16T01:13:42;94501.03;;;3.54;100.00
15050;BME280;7622;42.724;23.250;2022-12-16T01:16:09;94497.25;;;3.47;100.00
15050;BME280;7622;42.724;23.250;2022-12-16T01:18:36;94502.91;;;3.52;100.00
15050;BME280;7622;42.724;23.250;2022-12-16T01:21:03;94459.41;;;3.13;100.00
15050;BME280;7622;42.724;23.250;2022-12-16T01:23:30;94492.25;;;3.33;100.00
15050;BME280;7622;42.724;23.250;2022-12-16T01:25:59;94488.75;;;3.22;100.00
15050;BME280;7622;42.724;23.250;2022-12-16T01:28:26;94490.00;;;3.16;100.00
15050;BME280;7622;42.724;23.250;2022-12-16T01:30:59;94466.00;;;3.17;100.00
15050;BME280;7622;42.724;23.250;2022-12-16T01:33:27;94480.56;;;3.04;100.00
15050;BME280;7622;42.724;23.250;2022-12-16T01:35:58;94479.31;;;3.22;100.00
15050;BME280;7622;42.724;23.250;2022-12-16T01:38:25;94467.19;;;3.11;100.00
15050;BME280;7622;42.724;23.250;2022-12-16T01:40:52;94480.97;;;2.98;100.00
15050;BME280;7622;42.724;23.250;2022-12-16T01:43:23;94465.59;;;3.10;100.00
15050;BME280;7622;42.724;23.250;2022-12-16T01:45:50;94463.53;;;3.03;100.00
15050;BME280;7622;42.724;23.250;2022-12-16T01:48:26;94459.22;;;2.91;100.00
15050;BME280;7622;42.724;23.250;2022-12-16T01:51:01;94453.38;;;3.01;100.00
15050;BME280;7622;42.724;23.250;2022-12-16T01:53:29;94463.31;;;3.06;100.00
15050;BME280;7622;42.724;23.250;2022-12-16T01:55:57;94469.47;;;3.16;100.00
15050;BME280;7622;42.724;23.250;2022-12-16T01:58:28;94470.09;;;3.07;100.00
15050;BME280;7622;42.724;23.250;2022-12-16T02:00:55;94455.31;;;3.23;100.00
15050;BME280;7622;42.724;23.250;2022-12-16T02:03:25;94468.63;;;3.28;100.00
15050;BME280;7622;42.724;23.250;2022-12-16T02:05:52;94429.22;;;3.29;100.00
15050;BME280;7622;42.724;23.250;2022-12-16T02:08:19;94439.25;;;3.32;100.00
15050;BME280;7622;42.724;23.250;2022-12-16T02:11:02;94435.91;;;3.19;100.00
15050;BME280;7622;42.724;23.250;2022-12-16T02:13:37;94420.47;;;3.44;100.00
15050;BME280;7622;42.724;23.250;2022-12-16T02:16:15;94435.91;;;3.19;100.00
15050;BME280;7622;42.724;23.250;2022-12-16T02:18:53;94411.56;;;3.37;100.00
15050;BME280;7622;42.724;23.250;2022-12-16T02:21:42;94436.00;;;3.30;100.00
15050;BME280;7622;42.724;23.250;2022-12-16T02:24:33;94426.56;;;3.31;100.00
15050;BME280;7622;42.724;23.250;2022-12-16T02:27:35;94442.06;;;3.29;100.00
15050;BME280;7622;42.724;23.250;2022-12-16T02:33:29;94428.19;;;3.32;100.00
15050;BME280;7622;42.724;23.250;2022-12-16T02:36:08;94437.34;;;3.23;100.00
15050;BME280;7622;42.724;23.250;2022-12-16T02:38:44;94398.88;;;2.98;100.00
15050;BME280;7622;42.724;23.250;2022-12-16T02:41:20;94445.88;;;3.11;100.00
15050;BME280;7622;42.724;23.250;2022-12-16T02:43:52;94455.72;;;2.92;100.00
15050;BME280;7622;42.724;23.250;2022-12-16T02:46:22;94446.38;;;2.91;100.00
15050;BME280;7622;42.724;23.250;2022-12-16T02:48:51;94438.19;;;2.73;100.00
15050;BME280;7622;42.724;23.250;2022-12-16T02:51:19;94466.28;;;2.62;100.00
15050;BME280;7622;42.724;23.250;2022-12-16T02:53:47;94461.25;;;2.60;100.00
15050;BME280;7622;42.724;23.250;2022-12-16T02:56:40;94473.25;;;2.47;100.00
15050;BME280;7622;42.724;23.250;2022-12-16T02:59:17;94462.25;;;2.45;100.00
15050;BME280;7622;42.724;23.250;2022-12-16T03:01:52;94452.78;;;2.20;100.00
15050;BME280;7622;42.724;23.250;2022-12-16T03:04:27;94464.81;;;2.45;100.00
15050;BME280;7622;42.724;23.250;2022-12-16T03:06:59;94458.19;;;2.55;100.00
15050;BME280;7622;42.724;23.250;2022-12-16T03:09:29;94439.91;;;2.34;100.00
15050;BME280;7622;42.724;23.250;2022-12-16T03:12:00;94438.69;;;2.65;100.00
15050;BME280;7622;42.724;23.250;2022-12-16T03:14:31;94448.44;;;2.73;100.00
15050;BME280;7622;42.724;23.250;2022-12-16T03:17:00;94428.25;;;2.68;100.00
15050;BME280;7622;42.724;23.250;2022-12-16T03:19:28;94424.56;;;2.60;100.00
15050;BME280;7622;42.724;23.250;2022-12-16T03:21:59;94423.22;;;2.80;100.00
15050;BME280;7622;42.724;23.250;2022-12-16T03:24:28;94425.19;;;2.76;100.00
15050;BME280;7622;42.724;23.250;2022-12-16T03:27:00;94431.22;;;2.75;100.00
15050;BME280;7622;42.724;23.250;2022-12-16T03:29:35;94432.97;;;2.74;100.00
15050;BME280;7622;42.724;23.250;2022-12-16T03:32:08;94421.88;;;2.74;100.00
15050;BME280;7622;42.724;23.250;2022-12-16T03:34:41;94461.69;;;2.80;100.00
15050;BME280;7622;42.724;23.250;2022-12-16T03:37:11;94468.97;;;2.86;100.00
15050;BME280;7622;42.724;23.250;2022-12-16T03:39:41;94466.41;;;2.86;100.00
15050;BME280;7622;42.724;23.250;2022-12-16T03:42:09;94458.28;;;2.92;100.00
15050;BME280;7622;42.724;23.250;2022-12-16T03:44:37;94460.75;;;2.93;100.00
15050;BME280;7622;42.724;23.250;2022-12-16T03:47:04;94452.56;;;2.88;100.00
15050;BME280;7622;42.724;23.250;2022-12-16T03:49:31;94451.41;;;2.92;100.00
15050;BME280;7622;42.724;23.250;2022-12-16T03:52:00;94452.34;;;2.91;100.00
15050;BME280;7622;42.724;23.250;2022-12-16T03:54:26;94445.47;;;2.92;100.00
15050;BME280;7622;42.724;23.250;2022-12-16T03:56:53;94481.78;;;2.98;100.00
15050;BME280;7622;42.724;23.250;2022-12-16T03:59:20;94470.28;;;2.78;100.00
15050;BME280;7622;42.724;23.250;2022-12-16T04:01:47;94469.38;;;2.80;100.00
15050;BME280;7622;42.724;23.250;2022-12-16T04:04:14;94460.03;;;2.78;100.00
15050;BME280;7622;42.724;23.250;2022-12-16T04:06:41;94454.31;;;2.88;100.00
15050;BME280;7622;42.724;23.250;2022-12-16T04:09:09;94461.06;;;3.01;100.00
15050;BME280;7622;42.724;23.250;2022-12-16T04:11:36;94464.34;;;2.91;100.00
15050;BME280;7622;42.724;23.250;2022-12-16T04:14:20;94457.59;;;2.90;100.00
15050;BME280;7622;42.724;23.250;2022-12-16T04:17:05;94418.59;;;2.59;100.00
15050;BME280;7622;42.724;23.250;2022-12-16T04:19:49;94460.03;;;2.91;100.00
15050;BME280;7622;42.724;23.250;2022-12-16T04:22:36;94470.09;;;3.07;100.00
15050;BME280;7622;42.724;23.250;2022-12-16T04:25:24;94464.22;;;3.05;100.00
15050;BME280;7622;42.724;23.250;2022-12-16T04:27:52;94462.69;;;3.15;100.00
15050;BME280;7622;42.724;23.250;2022-12-16T04:30:20;94458.78;;;3.22;100.00
15050;BME280;7622;42.724;23.250;2022-12-16T04:32:50;94453.53;;;3.36;100.00
15050;BME280;7622;42.724;23.250;2022-12-16T04:35:37;94458.31;;;3.53;100.00
15050;BME280;7622;42.724;23.250;2022-12-16T04:38:21;94455.53;;;3.56;100.00
15050;BME280;7622;42.724;23.250;2022-12-16T04:41:07;94442.47;;;3.60;100.00
15050;BME280;7622;42.724;23.250;2022-12-16T04:44:06;94436.72;;;3.69;100.00
15050;BME280;7622;42.724;23.250;2022-12-16T04:46:50;94439.75;;;3.74;100.00
15050;BME280;7622;42.724;23.250;2022-12-16T04:49:34;94445.13;;;3.71;100.00
15050;BME280;7622;42.724;23.250;2022-12-16T04:52:18;94452.34;;;3.66;100.00
15050;BME280;7622;42.724;23.250;2022-12-16T04:55:03;94445.13;;;3.71;100.00
15050;BME280;7622;42.724;23.250;2022-12-16T04:57:50;94445.03;;;3.60;100.00
15050;BME280;7622;42.724;23.250;2022-12-16T05:00:35;94431.13;;;3.75;100.00
15050;BME280;7622;42.724;23.250;2022-12-16T05:03:19;94451.59;;;3.76;100.00
15050;BME280;7622;42.724;23.250;2022-12-16T05:06:04;94449.13;;;3.75;100.00
15050;BME280;7622;42.724;23.250;2022-12-16T05:08:48;94430.50;;;3.84;100.00
15050;BME280;7622;42.724;23.250;2022-12-16T05:11:32;94428.13;;;3.81;100.00
15050;BME280;7622;42.724;23.250;2022-12-16T05:14:18;94446.69;;;3.73;100.00
15050;BME280;7622;42.724;23.250;2022-12-16T05:17:02;94461.75;;;3.78;100.00
15050;BME280;7622;42.724;23.250;2022-12-16T05:19:46;94447.31;;;3.88;100.00
15050;BME280;7622;42.724;23.250;2022-12-16T05:22:31;94447.78;;;4.06;100.00
15050;BME280;7622;42.724;23.250;2022-12-16T05:25:20;94445.59;;;4.12;100.00
15050;BME280;7622;42.724;23.250;2022-12-16T05:28:04;94467.63;;;4.04;100.00
15050;BME280;7622;42.724;23.250;2022-12-16T05:30:50;94456.50;;;4.03;100.00
15050;BME280;7622;42.724;23.250;2022-12-16T05:33:34;94484.94;;;3.89;100.00
15050;BME280;7622;42.724;23.250;2022-12-16T05:36:18;94473.47;;;4.06;100.00
15050;BME280;7622;42.724;23.250;2022-12-16T05:39:03;94482.22;;;4.03;100.00
15050;BME280;7622;42.724;23.250;2022-12-16T05:41:47;94497.81;;;4.13;100.00
15050;BME280;7622;42.724;23.250;2022-12-16T05:44:31;94476.78;;;3.95;100.00
15050;BME280;7622;42.724;23.250;2022-12-16T05:47:17;94481.78;;;4.09;100.00
15050;BME280;7622;42.724;23.250;2022-12-16T05:50:01;94467.06;;;4.11;100.00
15050;BME280;7622;42.724;23.250;2022-12-16T05:52:48;94476.19;;;4.15;100.00
15050;BME280;7622;42.724;23.250;2022-12-16T05:55:34;94484.03;;;4.14;100.00
15050;BME280;7622;42.724;23.250;2022-12-16T05:58:19;94495.53;;;4.21;100.00
15050;BME280;7622;42.724;23.250;2022-12-16T06:01:03;94502.41;;;4.20;100.00
15050;BME280;7622;42.724;23.250;2022-12-16T06:03:49;94525.00;;;4.28;100.00
15050;BME280;7622;42.724;23.250;2022-12-16T06:06:33;94516.84;;;4.34;100.00
15050;BME280;7622;42.724;23.250;2022-12-16T06:09:17;94541.34;;;4.27;100.00
15050;BME280;7622;42.724;23.250;2022-12-16T06:12:02;94537.06;;;4.15;100.00
15050;BME280;7622;42.724;23.250;2022-12-16T06:14:46;94543.31;;;3.74;100.00
15050;BME280;7622;42.724;23.250;2022-12-16T06:17:30;94538.13;;;3.63;100.00
15050;BME280;7622;42.724;23.250;2022-12-16T06:20:16;94530.94;;;3.55;100.00
15050;BME280;7622;42.724;23.250;2022-12-16T06:23:00;94527.06;;;3.37;100.00
15050;BME280;7622;42.724;23.250;2022-12-16T06:25:44;94535.97;;;3.57;100.00
15050;BME280;7622;42.724;23.250;2022-12-16T06:28:29;94536.28;;;3.65;100.00
15050;BME280;7622;42.724;23.250;2022-12-16T06:31:13;94525.78;;;3.68;100.00
15050;BME280;7622;42.724;23.250;2022-12-16T06:33:57;94527.31;;;3.71;100.00
15050;BME280;7622;42.724;23.250;2022-12-16T06:36:43;94525.44;;;3.85;100.00
15050;BME280;7622;42.724;23.250;2022-12-16T06:39:27;94540.84;;;3.85;100.00
15050;BME280;7622;42.724;23.250;2022-12-16T06:42:11;94530.06;;;3.93;100.00
15050;BME280;7622;42.724;23.250;2022-12-16T06:44:55;94509.34;;;4.07;100.00
15050;BME280;7622;42.724;23.250;2022-12-16T06:47:41;94517.06;;;4.07;100.00
15050;BME280;7622;42.724;23.250;2022-12-16T06:50:26;94524.75;;;4.07;100.00
15050;BME280;7622;42.724;23.250;2022-12-16T06:53:11;94523.66;;;4.22;100.00
15050;BME280;7622;42.724;23.250;2022-12-16T06:55:55;94531.44;;;4.33;100.00
15050;BME280;7622;42.724;23.250;2022-12-16T06:58:40;94533.84;;;4.48;100.00
15050;BME280;7622;42.724;23.250;2022-12-16T07:01:24;94537.78;;;4.41;100.00
15050;BME280;7622;42.724;23.250;2022-12-16T07:04:23;94552.00;;;4.33;100.00
15050;BME280;7622;42.724;23.250;2022-12-16T07:07:07;94537.53;;;4.56;100.00
15050;BME280;7622;42.724;23.250;2022-12-16T07:09:53;94518.63;;;4.68;100.00
15050;BME280;7622;42.724;23.250;2022-12-16T07:12:37;94526.97;;;4.83;100.00
15050;BME280;7622;42.724;23.250;2022-12-16T07:15:22;94510.09;;;4.79;100.00
15050;BME280;7622;42.724;23.250;2022-12-16T07:18:06;94536.09;;;4.87;100.00
15050;BME280;7622;42.724;23.250;2022-12-16T07:20:50;94539.59;;;4.86;100.00
15050;BME280;7622;42.724;23.250;2022-12-16T07:23:34;94523.94;;;4.89;100.00
15050;BME280;7622;42.724;23.250;2022-12-16T07:26:20;94532.88;;;5.07;100.00
15050;BME280;7622;42.724;23.250;2022-12-16T07:29:04;94549.97;;;5.08;100.00
15050;BME280;7622;42.724;23.250;2022-12-16T07:31:48;94541.69;;;5.16;100.00
15050;BME280;7622;42.724;23.250;2022-12-16T07:34:33;94559.53;;;5.06;100.00
15050;BME280;7622;42.724;23.250;2022-12-16T07:37:17;94550.66;;;6.01;100.00
15050;BME280;7622;42.724;23.250;2022-12-16T07:40:01;94534.59;;;5.98;100.00
15050;BME280;7622;42.724;23.250;2022-12-16T07:42:48;94533.31;;;5.59;100.00
15050;BME280;7622;42.724;23.250;2022-12-16T07:45:46;94552.50;;;5.77;100.00
15050;BME280;7622;42.724;23.250;2022-12-16T07:48:31;94557.31;;;5.70;100.00
15050;BME280;7622;42.724;23.250;2022-12-16T07:51:15;94568.41;;;5.48;100.00
15050;BME280;7622;42.724;23.250;2022-12-16T07:53:59;94552.38;;;5.45;100.00
15050;BME280;7622;42.724;23.250;2022-12-16T07:56:43;94546.06;;;5.38;100.00
15050;BME280;7622;42.724;23.250;2022-12-16T07:59:29;94552.13;;;5.48;100.00
15050;BME280;7622;42.724;23.250;2022-12-16T08:02:13;94547.44;;;5.42;100.00
15050;BME280;7622;42.724;23.250;2022-12-16T08:04:57;94565.94;;;5.47;100.00
15050;BME280;7622;42.724;23.250;2022-12-16T08:07:41;94568.97;;;5.30;100.00
15050;BME280;7622;42.724;23.250;2022-12-16T08:10:26;94580.56;;;5.46;100.00
15050;BME280;7622;42.724;23.250;2022-12-16T08:13:15;94546.06;;;5.71;100.00
15050;BME280;7622;42.724;23.250;2022-12-16T08:16:01;94393.19;;;4.83;100.00
15050;BME280;7622;42.724;23.250;2022-12-16T08:18:46;94556.03;;;5.98;100.00
15050;BME280;7622;42.724;23.250;2022-12-16T08:21:30;94550.38;;;5.82;100.00
15050;BME280;7622;42.724;23.250;2022-12-16T08:24:14;94549.22;;;6.19;100.00
15050;BME280;7622;42.724;23.250;2022-12-16T08:26:58;94542.28;;;6.31;100.00
15050;BME280;7622;42.724;23.250;2022-12-16T08:29:42;94566.69;;;6.27;100.00
15050;BME280;7622;42.724;23.250;2022-12-16T08:32:28;94561.75;;;6.24;100.00
15050;BME280;7622;42.724;23.250;2022-12-16T08:35:12;94553.38;;;6.54;100.00
15050;BME280;7622;42.724;23.250;2022-12-16T08:37:56;94541.22;;;6.77;100.00
15050;BME280;7622;42.724;23.250;2022-12-16T08:40:42;94523.03;;;6.99;100.00
15050;BME280;7622;42.724;23.250;2022-12-16T08:43:29;94531.63;;;7.50;100.00
15050;BME280;7622;42.724;23.250;2022-12-16T08:46:13;94539.25;;;7.73;100.00
15050;BME280;7622;42.724;23.250;2022-12-16T08:48:59;94522.03;;;8.33;100.00
15050;BME280;7622;42.724;23.250;2022-12-16T08:51:43;94531.63;;;9.19;100.00
15050;BME280;7622;42.724;23.250;2022-12-16T08:54:28;94525.88;;;9.25;100.00
15050;BME280;7622;42.724;23.250;2022-12-16T08:57:11;94511.63;;;9.48;100.00
15050;BME280;7622;42.724;23.250;2022-12-16T08:59:55;94528.75;;;9.78;100.00
15050;BME280;7622;42.724;23.250;2022-12-16T09:02:40;94517.69;;;10.13;100.00
15050;BME280;7622;42.724;23.250;2022-12-16T09:05:25;94519.91;;;10.08;100.00
15050;BME280;7622;42.724;23.250;2022-12-16T09:08:10;94502.34;;;10.47;100.00
15050;BME280;7622;42.724;23.250;2022-12-16T09:10:54;94519.00;;;10.72;100.00
15050;BME280;7622;42.724;23.250;2022-12-16T09:13:38;94490.59;;;11.31;100.00
15050;BME280;7622;42.724;23.250;2022-12-16T09:16:22;94507.09;;;11.48;100.00
15050;BME280;7622;42.724;23.250;2022-12-16T09:19:07;94493.22;;;11.91;100.00
15050;BME280;7622;42.724;23.250;2022-12-16T09:21:52;94486.53;;;12.22;100.00
15050;BME280;7622;42.724;23.250;2022-12-16T09:24:42;94483.75;;;12.82;100.00
15050;BME280;7622;42.724;23.250;2022-12-16T09:27:26;94461.91;;;12.91;100.00
15050;BME280;7622;42.724;23.250;2022-12-16T09:30:11;94470.06;;;13.29;100.00
15050;BME280;7622;42.724;23.250;2022-12-16T09:32:55;94465.00;;;14.07;100.00
15050;BME280;7622;42.724;23.250;2022-12-16T09:35:39;94466.75;;;14.53;100.00
15050;BME280;7622;42.724;23.250;2022-12-16T09:38:25;94469.91;;;14.10;100.00
15050;BME280;7622;42.724;23.250;2022-12-16T09:41:22;94474.41;;;14.24;100.00
15050;BME280;7622;42.724;23.250;2022-12-16T09:44:15;94474.53;;;13.92;100.00
15050;BME280;7622;42.724;23.250;2022-12-16T09:47:06;94458.66;;;13.38;100.00
15050;BME280;7622;42.724;23.250;2022-12-16T09:49:58;94467.38;;;13.77;100.00
15050;BME280;7622;42.724;23.250;2022-12-16T09:52:47;94450.47;;;13.57;100.00
15050;BME280;7622;42.724;23.250;2022-12-16T09:55:37;94443.00;;;12.65;100.00
15050;BME280;7622;42.724;23.250;2022-12-16T09:58:25;94446.38;;;12.41;100.00
15050;BME280;7622;42.724;23.250;2022-12-16T10:01:11;94465.75;;;12.39;100.00
15050;BME280;7622;42.724;23.250;2022-12-16T10:03:56;94446.09;;;12.69;100.00
15050;BME280;7622;42.724;23.250;2022-12-16T10:06:44;94486.31;;;12.58;100.00
15050;BME280;7622;42.724;23.250;2022-12-16T10:09:32;94441.19;;;12.49;100.00
15050;BME280;7622;42.724;23.250;2022-12-16T10:12:29;94450.22;;;12.13;100.00
15050;BME280;7622;42.724;23.250;2022-12-16T10:15:23;94453.09;;;13.00;100.00
15050;BME280;7622;42.724;23.250;2022-12-16T10:18:18;94409.44;;;12.86;100.00
15050;BME280;7622;42.724;23.250;2022-12-16T10:21:07;94440.75;;;13.27;100.00
15050;BME280;7622;42.724;23.250;2022-12-16T10:23:58;94441.22;;;13.30;100.00
15050;BME280;7622;42.724;23.250;2022-12-16T10:26:51;94447.56;;;13.44;100.00
15050;BME280;7622;42.724;23.250;2022-12-16T10:29:40;94373.59;;;12.88;100.00
15050;BME280;7622;42.724;23.250;2022-12-16T10:32:29;94419.22;;;13.00;100.00
15050;BME280;7622;42.724;23.250;2022-12-16T10:35:20;94403.75;;;13.78;100.00
15050;BME280;7622;42.724;23.250;2022-12-16T10:38:09;94421.81;;;13.96;100.00
15050;BME280;7622;42.724;23.250;2022-12-16T10:41:12;94429.47;;;14.59;100.00
15050;BME280;7622;42.724;23.250;2022-12-16T10:43:57;94426.75;;;14.98;100.00
15050;BME280;7622;42.724;23.250;2022-12-16T10:46:52;94418.31;;;15.11;100.00
15050;BME280;7622;42.724;23.250;2022-12-16T10:49:37;94412.81;;;14.61;100.00
15050;BME280;7622;42.724;23.250;2022-12-16T10:52:21;94418.56;;;14.79;100.00
15050;BME280;7622;42.724;23.250;2022-12-16T10:55:13;94426.28;;;14.95;100.00
15050;BME280;7622;42.724;23.250;2022-12-16T10:58:09;94410.53;;;15.03;100.00
15050;BME280;7622;42.724;23.250;2022-12-16T11:00:57;94432.22;;;14.43;100.00
15050;BME280;7622;42.724;23.250;2022-12-16T11:03:42;94433.66;;;14.46;100.00
15050;BME280;7622;42.724;23.250;2022-12-16T11:06:35;94437.16;;;14.61;100.00
15050;BME280;7622;42.724;23.250;2022-12-16T11:09:24;94427.50;;;15.07;100.00
15050;BME280;7622;42.724;23.250;2022-12-16T11:12:23;94420.41;;;15.68;100.00
15050;BME280;7622;42.724;23.250;2022-12-16T11:15:21;94423.44;;;15.57;100.00
15050;BME280;7622;42.724;23.250;2022-12-16T11:18:09;94411.38;;;15.56;100.00
15050;BME280;7622;42.724;23.250;2022-12-16T11:21:09;94426.59;;;15.00;100.00
15050;BME280;7622;42.724;23.250;2022-12-16T11:24:04;94402.97;;;15.23;100.00
15050;BME280;7622;42.724;23.250;2022-12-16T11:26:53;94405.72;;;14.92;100.00
15050;BME280;7622;42.724;23.250;2022-12-16T11:29:48;94412.75;;;14.91;100.00
15050;BME280;7622;42.724;23.250;2022-12-16T11:32:34;94383.34;;;15.42;100.00
15050;BME280;7622;42.724;23.250;2022-12-16T11:35:22;94406.03;;;15.12;100.00
15050;BME280;7622;42.724;23.250;2022-12-16T11:38:15;94396.72;;;15.47;100.00
15050;BME280;7622;42.724;23.250;2022-12-16T11:41:02;94403.97;;;15.89;100.00
15050;BME280;7622;42.724;23.250;2022-12-16T11:43:48;94385.72;;;15.66;100.00
15050;BME280;7622;42.724;23.250;2022-12-16T11:46:35;94370.34;;;15.63;100.00
15050;BME280;7622;42.724;23.250;2022-12-16T11:49:25;94376.31;;;15.57;100.00
15050;BME280;7622;42.724;23.250;2022-12-16T11:52:14;94380.22;;;16.26;100.00
15050;BME280;7622;42.724;23.250;2022-12-16T11:55:10;94382.75;;;16.55;100.00
15050;BME280;7622;42.724;23.250;2022-12-16T11:58:17;94376.25;;;16.51;100.00
15050;BME280;7622;42.724;23.250;2022-12-16T12:01:10;94366.53;;;16.45;100.00
15050;BME280;7622;42.724;23.250;2022-12-16T12:03:57;94371.38;;;16.12;100.00
15050;BME280;7622;42.724;23.250;2022-12-16T12:10:22;94350.53;;;15.54;100.00
15050;BME280;7622;42.724;23.250;2022-12-16T12:13:21;94353.78;;;16.06;100.00
15050;BME280;7622;42.724;23.250;2022-12-16T12:16:19;94369.84;;;15.82;100.00
15050;BME280;7622;42.724;23.250;2022-12-16T12:19:11;94360.34;;;15.81;100.00
15050;BME280;7622;42.724;23.250;2022-12-16T12:22:00;94343.97;;;15.50;100.00
15050;BME280;7622;42.724;23.250;2022-12-16T12:24:51;94356.63;;;15.31;100.00
15050;BME280;7622;42.724;23.250;2022-12-16T12:27:46;94349.66;;;15.38;100.00
15050;BME280;7622;42.724;23.250;2022-12-16T12:30:36;94339.13;;;14.80;100.00
15050;BME280;7622;42.724;23.250;2022-12-16T12:33:32;94350.41;;;14.04;100.00
15050;BME280;7622;42.724;23.250;2022-12-16T12:36:24;94344.69;;;14.08;100.00
15050;BME280;7622;42.724;23.250;2022-12-16T12:39:18;94341.16;;;14.01;100.00
15050;BME280;7622;42.724;23.250;2022-12-16T12:42:15;94354.69;;;13.97;100.00
15050;BME280;7622;42.724;23.250;2022-12-16T12:45:17;94332.28;;;13.79;100.00
15050;BME280;7622;42.724;23.250;2022-12-16T12:48:09;94318.78;;;13.29;100.00
15050;BME280;7622;42.724;23.250;2022-12-16T12:51:03;94337.13;;;13.52;100.00
15050;BME280;7622;42.724;23.250;2022-12-16T12:53:53;94340.00;;;13.26;100.00
15050;BME280;7622;42.724;23.250;2022-12-16T12:56:45;94344.88;;;13.29;100.00
15050;BME280;7622;42.724;23.250;2022-12-16T12:59:40;94351.81;;;13.53;100.00
15050;BME280;7622;42.724;23.250;2022-12-16T13:02:40;94313.97;;;13.49;100.00
15050;BME280;7622;42.724;23.250;2022-12-16T13:05:30;94342.09;;;13.30;100.00
15050;BME280;7622;42.724;23.250;2022-12-16T13:08:32;94317.16;;;13.28;100.00
15050;BME280;7622;42.724;23.250;2022-12-16T13:11:22;94303.13;;;13.29;100.00
15050;BME280;7622;42.724;23.250;2022-12-16T13:17:24;94326.13;;;13.33;100.00
15050;BME280;7622;42.724;23.250;2022-12-16T13:20:35;94332.34;;;13.24;100.00
15050;BME280;7622;42.724;23.250;2022-12-16T13:23:28;94321.09;;;13.24;100.00
15050;BME280;7622;42.724;23.250;2022-12-16T13:26:14;94338.75;;;12.81;100.00
15050;BME280;7622;42.724;23.250;2022-12-16T13:29:06;94330.63;;;12.68;100.00
15050;BME280;7622;42.724;23.250;2022-12-16T13:31:59;94335.47;;;12.87;100.00
15050;BME280;7622;42.724;23.250;2022-12-16T13:34:59;94328.97;;;12.75;100.00
15050;BME280;7622;42.724;23.250;2022-12-16T13:37:52;94332.75;;;12.65;100.00
15050;BME280;7622;42.724;23.250;2022-12-16T13:40:53;94341.69;;;12.38;100.00
15050;BME280;7622;42.724;23.250;2022-12-16T13:43:45;94335.19;;;12.42;100.00
15050;BME280;7622;42.724;23.250;2022-12-16T13:46:45;94338.59;;;12.34;100.00
15050;BME280;7622;42.724;23.250;2022-12-16T13:49:43;94339.25;;;12.28;100.00
15050;BME280;7622;42.724;23.250;2022-12-16T13:52:36;94357.00;;;12.16;100.00
15050;BME280;7622;42.724;23.250;2022-12-16T13:55:29;94347.53;;;12.07;100.00
15050;BME280;7622;42.724;23.250;2022-12-16T13:58:24;94378.88;;;11.98;100.00
15050;BME280;7622;42.724;23.250;2022-12-16T14:01:11;94374.03;;;11.69;100.00
15050;BME280;7622;42.724;23.250;2022-12-16T14:03:58;94353.06;;;11.62;100.00
15050;BME280;7622;42.724;23.250;2022-12-16T14:06:45;94363.56;;;11.44;100.00
15050;BME280;7622;42.724;23.250;2022-12-16T14:09:33;94356.81;;;11.26;100.00
15050;BME280;7622;42.724;23.250;2022-12-16T14:12:39;94303.44;;;10.80;100.00
15050;BME280;7622;42.724;23.250;2022-12-16T14:15:28;94348.25;;;11.33;100.00
15050;BME280;7622;42.724;23.250;2022-12-16T14:18:24;94365.72;;;11.23;100.00
15050;BME280;7622;42.724;23.250;2022-12-16T14:21:17;94375.34;;;11.31;100.00
15050;BME280;7622;42.724;23.250;2022-12-16T14:24:08;94355.38;;;11.31;100.00
15050;BME280;7622;42.724;23.250;2022-12-16T14:26:54;94382.16;;;11.58;100.00
15050;BME280;7622;42.724;23.250;2022-12-16T14:29:41;94380.47;;;11.49;100.00